Time;durP1;ratioP1;P1;durP2;ratioP2;P2;SDS_P1;SDS_P2;PMS_P1;PMS_P2;Temp;Humidity;BMP_temperature;BMP_pressure;BME280_temperature;BME280_humidity;BME280_pressure;Samples;Min_cycle;Max_cycle;Signal;HPM_P1;HPM_P2
2021/03/29 00:02:42;;;;;;;11.43;6.82;;;23.60;28.70;;;;;;6158665;27;80979;-69
2021/03/29 00:05:43;;;;;;;13.07;6.80;;;23.60;28.40;;;;;;6154526;27;80877;-68
2021/03/29 00:08:43;;;;;;;12.68;6.65;;;23.60;28.90;;;;;;6154505;27;80521;-68
2021/03/29 00:11:44;;;;;;;12.88;7.25;;;23.60;28.50;;;;;;6155520;27;80690;-68
2021/03/29 00:14:45;;;;;;;13.40;7.10;;;23.50;28.50;;;;;;6156502;28;84902;-68
2021/03/29 00:17:45;;;;;;;10.73;6.35;;;23.50;28.30;;;;;;6159359;27;80781;-68
2021/03/29 00:20:46;;;;;;;14.38;7.13;;;23.60;28.10;;;;;;6154503;28;80623;-68
2021/03/29 00:23:46;;;;;;;9.85;6.30;;;23.60;28.30;;;;;;6159678;27;80725;-69
2021/03/29 00:26:47;;;;;;;12.50;6.97;;;23.50;28.60;;;;;;6158033;27;80389;-69
2021/03/29 00:29:47;;;;;;;18.15;7.38;;;23.50;28.20;;;;;;6163424;27;80490;-69
2021/03/29 00:32:48;;;;;;;12.50;6.35;;;23.50;27.90;;;;;;6149684;28;80847;-68
2021/03/29 00:35:48;;;;;;;11.85;6.63;;;23.50;28.20;;;;;;6159141;27;82859;-67
2021/03/29 00:38:49;;;;;;;12.45;7.15;;;23.50;28.10;;;;;;6156813;28;80456;-68
2021/03/29 00:41:50;;;;;;;16.23;6.63;;;23.50;27.90;;;;;;6155371;27;80808;-68
2021/03/29 00:44:50;;;;;;;13.65;6.82;;;23.50;27.80;;;;;;6154944;27;83209;-68
2021/03/29 00:47:51;;;;;;;14.35;6.70;;;23.50;27.60;;;;;;6136031;27;80692;-68
2021/03/29 00:50:51;;;;;;;10.90;6.25;;;23.50;27.70;;;;;;6155572;28;80415;-68
2021/03/29 00:53:54;;;;;;;12.35;7.30;;;23.50;27.80;;;;;;6156016;28;91545;-69
2021/03/29 00:56:55;;;;;;;13.13;7.57;;;23.50;27.90;;;;;;6166393;28;80666;-68
2021/03/29 00:59:56;;;;;;;13.85;7.35;;;23.50;27.80;;;;;;6154474;28;80755;-68
2021/03/29 01:02:56;;;;;;;14.60;7.53;;;23.50;27.70;;;;;;6155177;27;83384;-67
2021/03/29 01:05:58;;;;;;;10.32;6.63;;;23.50;27.50;;;;;;6157224;28;81734;-67
2021/03/29 01:08:58;;;;;;;16.10;7.38;;;23.50;27.80;;;;;;6135877;27;81473;-68
2021/03/29 01:11:59;;;;;;;10.82;5.97;;;23.50;28.30;;;;;;6156008;28;80536;-69
2021/03/29 01:14:59;;;;;;;13.73;6.90;;;23.50;28.10;;;;;;6159000;28;80610;-68
2021/03/29 01:18:00;;;;;;;13.52;7.40;;;23.50;28.20;;;;;;6153406;27;83631;-68
2021/03/29 01:21:00;;;;;;;14.82;7.72;;;23.50;28.20;;;;;;6146249;28;80915;-68
2021/03/29 01:24:01;;;;;;;13.35;6.43;;;23.50;28.10;;;;;;6152931;27;80473;-68
2021/03/29 01:27:01;;;;;;;15.05;7.65;;;23.50;28.20;;;;;;6155366;27;80949;-68
2021/03/29 01:30:02;;;;;;;12.02;7.30;;;23.50;28.20;;;;;;6149669;27;82618;-67
2021/03/29 01:33:03;;;;;;;13.00;7.57;;;23.50;28.00;;;;;;6151804;28;85707;-67
2021/03/29 01:36:03;;;;;;;12.20;7.20;;;23.40;27.70;;;;;;6152275;27;81009;-67
2021/03/29 01:39:04;;;;;;;13.57;7.30;;;23.40;28.20;;;;;;6167037;27;80629;-67
2021/03/29 01:42:04;;;;;;;14.40;7.22;;;23.50;27.90;;;;;;6163037;27;80869;-67
2021/03/29 01:45:05;;;;;;;12.90;6.90;;;23.40;28.20;;;;;;6155707;28;81059;-68
2021/03/29 01:48:05;;;;;;;13.10;6.75;;;23.40;27.70;;;;;;6160411;27;81016;-67
2021/03/29 01:51:06;;;;;;;14.77;6.85;;;23.40;27.40;;;;;;6141713;28;80662;-67
2021/03/29 01:54:06;;;;;;;10.90;6.45;;;23.40;27.40;;;;;;6167228;27;80921;-67
2021/03/29 01:57:07;;;;;;;12.70;6.50;;;23.50;27.30;;;;;;6157337;28;81556;-66
2021/03/29 02:00:07;;;;;;;12.77;7.15;;;23.40;27.80;;;;;;6153213;27;81220;-66
2021/03/29 02:03:13;;;;;;;12.70;7.00;;;23.40;27.50;;;;;;6148082;28;82692;-67
2021/03/29 02:06:13;;;;;;;11.57;6.82;;;23.40;27.60;;;;;;6155670;27;80712;-67
2021/03/29 02:09:14;;;;;;;13.20;7.38;;;23.40;27.50;;;;;;6158331;27;80596;-67
2021/03/29 02:12:14;;;;;;;11.30;6.15;;;23.40;27.60;;;;;;6154079;28;81406;-69
2021/03/29 02:15:15;;;;;;;12.25;6.32;;;23.40;27.70;;;;;;6154971;28;80479;-70
2021/03/29 02:18:15;;;;;;;13.10;6.25;;;23.40;27.80;;;;;;6147220;27;80663;-69
2021/03/29 02:21:16;;;;;;;11.88;6.90;;;23.40;27.90;;;;;;6156780;28;80622;-69
2021/03/29 02:24:16;;;;;;;11.52;6.53;;;23.40;27.90;;;;;;6157951;27;80978;-69
2021/03/29 02:27:17;;;;;;;13.57;6.55;;;23.30;27.90;;;;;;6144466;28;80755;-69
2021/03/29 02:30:18;;;;;;;12.88;6.65;;;23.40;28.00;;;;;;6143891;27;83855;-70
2021/03/29 02:33:18;;;;;;;11.65;6.50;;;23.40;27.60;;;;;;6152210;28;80961;-71
2021/03/29 02:36:19;;;;;;;10.88;6.43;;;23.40;27.60;;;;;;6150416;28;82568;-69
2021/03/29 02:39:19;;;;;;;9.15;5.57;;;23.40;28.00;;;;;;6146459;27;81337;-69
2021/03/29 02:42:20;;;;;;;10.82;6.10;;;23.40;27.30;;;;;;6158729;28;80802;-69
2021/03/29 02:45:20;;;;;;;11.77;6.10;;;23.40;27.60;;;;;;6133352;27;80700;-70
2021/03/29 02:48:21;;;;;;;10.25;5.93;;;23.40;27.60;;;;;;6159228;28;81494;-71
2021/03/29 02:51:22;;;;;;;13.05;6.95;;;23.40;27.90;;;;;;6154035;27;80985;-71
2021/03/29 02:54:22;;;;;;;10.18;5.97;;;23.40;28.10;;;;;;6147244;28;80640;-69
2021/03/29 02:57:23;;;;;;;11.13;6.47;;;23.40;27.90;;;;;;6141029;27;80818;-69
2021/03/29 03:00:23;;;;;;;10.85;5.78;;;23.40;27.50;;;;;;6147203;28;80452;-69
2021/03/29 03:03:24;;;;;;;10.38;6.30;;;23.30;27.60;;;;;;6138628;27;80348;-69
2021/03/29 03:06:24;;;;;;;12.63;6.30;;;23.40;27.50;;;;;;6149817;28;80427;-71
2021/03/29 03:09:25;;;;;;;12.63;6.57;;;23.40;27.90;;;;;;6158245;28;81093;-71
2021/03/29 03:12:26;;;;;;;12.10;6.22;;;23.40;27.90;;;;;;6160593;27;81172;-70
2021/03/29 03:15:26;;;;;;;10.07;6.32;;;23.40;27.80;;;;;;6151789;27;80600;-71
2021/03/29 03:18:27;;;;;;;9.88;6.53;;;23.30;28.00;;;;;;6148809;28;85368;-71
2021/03/29 03:21:27;;;;;;;11.50;6.10;;;23.40;27.50;;;;;;6158048;27;83560;-70
2021/03/29 03:24:28;;;;;;;12.25;6.80;;;23.40;27.40;;;;;;6151232;28;81718;-70
2021/03/29 03:27:28;;;;;;;14.18;6.30;;;23.40;27.40;;;;;;6150866;27;80728;-69
2021/03/29 03:30:29;;;;;;;12.02;6.55;;;23.40;27.10;;;;;;6157372;28;80459;-69
2021/03/29 03:33:29;;;;;;;14.07;6.72;;;23.40;27.00;;;;;;6157483;28;81132;-70
2021/03/29 03:36:30;;;;;;;13.10;7.00;;;23.50;27.10;;;;;;6155754;27;80624;-70
2021/03/29 03:39:30;;;;;;;12.82;6.47;;;23.50;27.10;;;;;;6157042;27;80830;-69
2021/03/29 03:42:31;;;;;;;12.68;5.88;;;23.50;27.10;;;;;;6148386;27;81449;-69
2021/03/29 03:45:32;;;;;;;12.93;6.75;;;23.50;27.10;;;;;;6157114;27;83027;-68
2021/03/29 03:48:32;;;;;;;16.55;6.95;;;23.60;27.20;;;;;;6153771;28;81793;-69
2021/03/29 03:51:33;;;;;;;12.25;7.15;;;23.60;27.20;;;;;;6157753;27;81082;-69
2021/03/29 03:54:33;;;;;;;15.23;7.00;;;23.60;27.20;;;;;;6159355;27;80616;-68
2021/03/29 03:57:34;;;;;;;13.30;6.53;;;23.60;27.20;;;;;;6157336;28;80206;-68
2021/03/29 04:00:35;;;;;;;11.98;6.65;;;23.70;27.30;;;;;;6147055;27;80963;-71
2021/03/29 04:03:35;;;;;;;11.52;6.53;;;23.60;27.30;;;;;;6156475;28;80975;-70
2021/03/29 04:06:36;;;;;;;15.00;7.05;;;23.70;27.30;;;;;;6150404;27;80493;-69
2021/03/29 04:09:48;;;;;;;13.57;6.85;;;23.70;27.40;;;;;;6155202;28;83379;-71
2021/03/29 04:12:55;;;;;;;15.38;7.05;;;23.70;27.40;;;;;;6161661;27;80359;-69
2021/03/29 04:15:56;;;;;;;16.48;7.53;;;23.70;27.40;;;;;;6146450;28;80817;-69
2021/03/29 04:18:56;;;;;;;16.25;7.50;;;23.70;27.50;;;;;;6148988;27;83167;-69
2021/03/29 04:21:57;;;;;;;13.18;6.22;;;23.70;27.50;;;;;;6144298;28;83146;-68
2021/03/29 04:24:57;;;;;;;14.10;7.47;;;23.80;27.60;;;;;;6130434;27;81513;-67
2021/03/29 04:27:58;;;;;;;12.13;7.13;;;23.80;27.60;;;;;;6149943;27;80564;-68
2021/03/29 04:30:58;;;;;;;12.95;6.68;;;23.80;27.70;;;;;;6145202;27;81262;-67
2021/03/29 04:33:59;;;;;;;18.40;8.68;;;23.80;27.70;;;;;;6150171;28;83681;-68
2021/03/29 04:37:00;;;;;;;16.52;7.43;;;23.80;27.80;;;;;;6146085;27;80722;-68
2021/03/29 04:40:00;;;;;;;15.40;8.00;;;23.80;27.80;;;;;;6155322;27;80691;-68
2021/03/29 04:43:01;;;;;;;19.75;8.25;;;23.80;27.90;;;;;;6152595;27;80507;-68
2021/03/29 04:46:01;;;;;;;16.33;8.05;;;23.80;27.90;;;;;;6150118;28;80168;-68
2021/03/29 04:49:02;;;;;;;14.48;7.95;;;23.80;28.00;;;;;;6154556;28;80739;-68
2021/03/29 04:52:02;;;;;;;17.77;8.60;;;23.80;28.00;;;;;;6154465;28;80773;-68
2021/03/29 04:55:03;;;;;;;21.58;9.55;;;23.80;28.00;;;;;;6146933;27;80933;-67
2021/03/29 04:58:03;;;;;;;20.77;9.93;;;23.80;28.00;;;;;;6151398;27;82266;-69
2021/03/29 05:01:04;;;;;;;18.73;9.50;;;23.80;28.00;;;;;;6158671;27;80684;-67
2021/03/29 05:04:04;;;;;;;17.35;8.82;;;23.90;28.30;;;;;;6166360;27;82980;-68
2021/03/29 05:07:05;;;;;;;16.80;9.45;;;23.80;28.50;;;;;;6153500;28;80980;-67
2021/03/29 05:10:05;;;;;;;22.33;9.98;;;23.80;28.70;;;;;;6154243;28;80983;-67
2021/03/29 05:13:06;;;;;;;524.25;190.45;;;23.80;28.90;;;;;;6147912;27;83179;-69
2021/03/29 05:16:07;;;;;;;298.00;106.53;;;23.80;29.30;;;;;;6148947;27;92657;-68
2021/03/29 05:19:07;;;;;;;202.30;75.07;;;23.80;29.10;;;;;;6139961;27;85383;-68
2021/03/29 05:22:08;;;;;;;272.27;96.57;;;23.80;28.80;;;;;;6155551;27;85224;-68
2021/03/29 05:25:08;;;;;;;602.65;246.02;;;23.80;29.20;;;;;;6123867;27;85758;-68
2021/03/29 05:28:09;;;;;;;684.95;311.67;;;23.80;29.40;;;;;;6146961;27;85875;-68
2021/03/29 05:31:09;;;;;;;639.95;258.00;;;23.80;29.50;;;;;;6149457;28;88421;-68
2021/03/29 05:34:11;;;;;;;456.70;172.15;;;23.80;29.40;;;;;;6145450;27;85763;-67
2021/03/29 05:37:11;;;;;;;425.85;163.40;;;23.80;28.90;;;;;;6143421;28;87935;-68
2021/03/29 05:40:16;;;;;;;379.70;146.70;;;23.90;28.80;;;;;;6138598;27;85435;-68
2021/03/29 05:43:17;;;;;;;375.25;138.63;;;23.90;29.20;;;;;;6141719;28;85470;-67
2021/03/29 05:46:17;;;;;;;370.00;131.40;;;23.90;29.20;;;;;;6149669;27;86320;-68
2021/03/29 05:49:18;;;;;;;336.50;127.35;;;23.90;29.10;;;;;;6148638;27;85997;-68
2021/03/29 05:52:18;;;;;;;296.88;115.18;;;23.90;29.60;;;;;;6147612;27;85881;-67
2021/03/29 05:55:23;;;;;;;262.52;99.63;;;23.90;29.90;;;;;;6142285;27;85393;-69
2021/03/29 06:01:24;;;;;;;219.90;85.35;;;23.90;31.70;;;;;;6152474;27;82962;-69
2021/03/29 06:04:25;;;;;;;200.40;80.50;;;23.90;31.20;;;;;;6151083;28;83929;-68
2021/03/29 06:07:25;;;;;;;196.63;76.47;;;23.90;31.10;;;;;;6145797;27;83800;-69
2021/03/29 06:10:26;;;;;;;179.18;69.88;;;23.90;31.40;;;;;;6148358;27;83970;-70
2021/03/29 06:13:27;;;;;;;161.10;62.38;;;23.90;31.50;;;;;;6152806;28;83635;-68
2021/03/29 06:16:27;;;;;;;160.48;59.40;;;23.90;31.70;;;;;;6151292;28;83160;-68
2021/03/29 06:19:28;;;;;;;141.45;53.42;;;23.90;31.60;;;;;;6145923;28;82953;-69
2021/03/29 06:22:28;;;;;;;142.93;54.38;;;23.90;31.80;;;;;;6142565;28;83753;-69
2021/03/29 06:25:29;;;;;;;128.75;54.17;;;23.90;31.20;;;;;;6142551;28;84526;-68
2021/03/29 06:28:30;;;;;;;120.72;48.22;;;23.90;32.20;;;;;;6151332;27;82862;-68
2021/03/29 06:31:30;;;;;;;120.85;44.53;;;23.90;31.70;;;;;;6156077;27;84492;-68
2021/03/29 06:34:31;;;;;;;109.72;43.85;;;23.90;32.00;;;;;;6151884;27;84369;-66
2021/03/29 06:37:31;;;;;;;103.18;42.47;;;23.90;31.00;;;;;;6154263;27;84290;-69
2021/03/29 06:40:32;;;;;;;91.63;40.42;;;23.90;31.20;;;;;;6143956;28;85420;-68
2021/03/29 06:43:32;;;;;;;90.28;39.58;;;23.90;31.70;;;;;;6139485;28;84708;-66
2021/03/29 06:46:33;;;;;;;86.63;36.05;;;23.90;31.80;;;;;;6154602;28;83475;-67
2021/03/29 06:49:34;;;;;;;84.70;35.00;;;23.90;31.80;;;;;;6150985;28;83306;-69
2021/03/29 06:52:35;;;;;;;80.15;34.55;;;23.90;31.60;;;;;;6152374;27;83304;-69
2021/03/29 06:55:35;;;;;;;74.80;33.40;;;23.90;31.10;;;;;;6151808;28;83447;-67
2021/03/29 06:58:36;;;;;;;69.40;30.52;;;23.90;31.40;;;;;;6148064;27;84191;-67
2021/03/29 07:01:37;;;;;;;69.43;28.67;;;23.90;31.50;;;;;;6147039;27;83910;-68
2021/03/29 07:04:37;;;;;;;68.35;29.05;;;23.90;31.30;;;;;;6150511;27;83468;-66
2021/03/29 07:07:38;;;;;;;66.82;27.90;;;23.90;31.90;;;;;;6148590;28;83686;-66
2021/03/29 07:10:38;;;;;;;66.07;26.60;;;23.90;31.90;;;;;;6149402;27;84827;-66
2021/03/29 07:13:39;;;;;;;56.97;26.58;;;23.90;32.60;;;;;;6148017;28;83738;-65
2021/03/29 07:16:39;;;;;;;56.83;23.60;;;23.80;32.40;;;;;;6150634;28;83481;-63
2021/03/29 07:19:40;;;;;;;64.80;25.20;;;23.90;32.20;;;;;;6137084;28;83201;-67
2021/03/29 07:22:41;;;;;;;51.08;23.40;;;23.90;32.00;;;;;;6146530;28;84262;-67
2021/03/29 07:25:42;;;;;;;50.28;21.40;;;23.90;34.60;;;;;;6149733;27;84131;-65
2021/03/29 07:28:43;;;;;;;50.15;21.63;;;23.90;32.80;;;;;;6154511;27;83181;-66
2021/03/29 07:31:43;;;;;;;50.10;23.10;;;23.90;32.80;;;;;;6152005;28;83260;-67
2021/03/29 07:34:45;;;;;;;49.55;21.50;;;23.90;33.70;;;;;;6146434;27;85455;-67
2021/03/29 07:37:47;;;;;;;43.03;20.45;;;23.90;34.90;;;;;;6148620;27;83719;-67
2021/03/29 07:40:48;;;;;;;44.10;20.67;;;24.00;35.20;;;;;;6146237;28;83500;-66
2021/03/29 07:43:48;;;;;;;46.33;20.70;;;23.90;35.00;;;;;;6153733;28;83540;-64
2021/03/29 07:46:49;;;;;;;37.40;16.55;;;23.90;35.00;;;;;;6142896;28;92396;-65
2021/03/29 07:49:50;;;;;;;33.20;14.35;;;23.90;35.00;;;;;;6145947;27;83776;-67
2021/03/29 07:52:51;;;;;;;26.60;10.80;;;24.00;34.90;;;;;;6143972;28;83421;-66
2021/03/29 07:55:52;;;;;;;24.08;10.98;;;24.10;34.70;;;;;;6160278;27;83132;-66
2021/03/29 07:58:52;;;;;;;18.88;8.45;;;24.00;34.60;;;;;;6152639;28;83962;-67
2021/03/29 08:01:53;;;;;;;19.33;8.52;;;24.00;32.90;;;;;;6154725;27;83047;-66
2021/03/29 08:04:53;;;;;;;17.55;8.45;;;24.00;32.60;;;;;;6166750;27;81261;-67
2021/03/29 08:07:56;;;;;;;39.17;8.50;;;24.00;34.60;;;;;;6162049;28;83102;-67
2021/03/29 08:10:57;;;;;;;24.73;8.10;;;23.90;32.70;;;;;;6159368;28;83120;-67
2021/03/29 08:13:58;;;;;;;21.35;8.02;;;23.90;34.00;;;;;;6165374;27;80410;-68
2021/03/29 08:16:58;;;;;;;20.45;7.90;;;23.90;33.00;;;;;;6150843;27;80797;-67
2021/03/29 08:19:59;;;;;;;19.27;6.80;;;23.90;32.20;;;;;;6153596;27;81199;-67
2021/03/29 08:22:59;;;;;;;22.08;7.22;;;23.80;31.10;;;;;;6160346;27;80372;-67
2021/03/29 08:26:00;;;;;;;42.25;7.50;;;23.80;30.80;;;;;;6155513;27;80806;-68
2021/03/29 08:29:00;;;;;;;12.32;6.60;;;23.80;30.50;;;;;;6157515;28;81687;-67
2021/03/29 08:32:01;;;;;;;12.52;6.13;;;23.80;30.80;;;;;;6151814;27;80896;-67
2021/03/29 08:35:02;;;;;;;17.65;6.28;;;23.80;30.80;;;;;;6163196;27;81222;-67
2021/03/29 08:38:02;;;;;;;14.10;6.07;;;23.70;30.50;;;;;;6156096;28;82755;-67
2021/03/29 08:41:03;;;;;;;12.63;5.13;;;23.80;30.80;;;;;;6167417;28;82059;-67
2021/03/29 08:44:03;;;;;;;13.00;4.95;;;23.70;30.40;;;;;;6157520;28;81371;-67
2021/03/29 08:47:04;;;;;;;8.65;4.57;;;23.70;30.30;;;;;;6158261;27;80670;-67
2021/03/29 08:50:04;;;;;;;11.43;5.32;;;23.60;30.20;;;;;;6149977;28;81567;-67
2021/03/29 08:53:05;;;;;;;12.85;4.68;;;23.60;30.10;;;;;;6154644;27;81878;-66
2021/03/29 08:56:05;;;;;;;10.63;4.43;;;23.50;30.00;;;;;;6161265;27;81050;-66
2021/03/29 08:59:06;;;;;;;7.30;4.30;;;23.50;30.30;;;;;;6144842;27;80589;-66
2021/03/29 09:02:06;;;;;;;18.33;5.28;;;23.50;29.90;;;;;;6155764;28;82843;-68
2021/03/29 09:05:07;;;;;;;14.68;4.55;;;23.40;30.50;;;;;;6156237;28;80770;-70
2021/03/29 09:08:08;;;;;;;8.77;3.92;;;23.50;30.70;;;;;;6154354;27;81979;-69
2021/03/29 09:11:08;;;;;;;11.50;4.40;;;23.50;30.40;;;;;;6154568;28;80778;-69
2021/03/29 09:14:09;;;;;;;12.95;4.78;;;23.50;30.80;;;;;;6157520;28;80242;-69
2021/03/29 09:17:09;;;;;;;17.98;4.70;;;23.40;30.50;;;;;;6152989;28;80786;-69
2021/03/29 09:20:10;;;;;;;8.25;3.80;;;23.40;30.60;;;;;;6154564;27;81227;-66
2021/03/29 09:23:13;;;;;;;8.98;4.15;;;23.40;31.10;;;;;;6148829;28;82006;-67
2021/03/29 09:26:14;;;;;;;9.88;4.22;;;23.40;30.80;;;;;;6158036;27;80918;-68
2021/03/29 09:29:14;;;;;;;7.63;4.00;;;23.40;31.00;;;;;;6151402;27;82464;-68
2021/03/29 09:32:15;;;;;;;9.68;3.75;;;23.40;31.40;;;;;;6156219;27;81316;-68
2021/03/29 09:35:16;;;;;;;7.50;3.65;;;23.50;32.40;;;;;;6151872;27;80785;-67
2021/03/29 09:38:16;;;;;;;8.77;3.85;;;23.50;33.30;;;;;;6128556;28;81795;-69
2021/03/29 09:41:17;;;;;;;12.38;3.90;;;23.50;33.80;;;;;;6144911;28;81634;-67
2021/03/29 09:44:17;;;;;;;8.13;3.88;;;23.40;33.70;;;;;;6154273;27;80985;-67
2021/03/29 09:47:18;;;;;;;13.13;3.95;;;23.40;33.60;;;;;;6155086;28;80369;-68
2021/03/29 09:50:18;;;;;;;12.27;4.05;;;23.40;33.70;;;;;;6162927;27;81684;-68
2021/03/29 09:53:19;;;;;;;10.25;3.42;;;23.40;33.50;;;;;;6159855;27;81747;-67
2021/03/29 09:56:19;;;;;;;8.75;3.60;;;23.40;33.10;;;;;;6153840;28;80395;-67
2021/03/29 09:59:20;;;;;;;9.77;3.60;;;23.30;32.60;;;;;;6153183;27;83306;-67
2021/03/29 10:02:21;;;;;;;8.48;3.72;;;23.30;32.50;;;;;;6151864;28;81496;-67
2021/03/29 10:05:21;;;;;;;7.47;3.85;;;23.40;32.50;;;;;;6158562;27;80389;-73
2021/03/29 10:08:22;;;;;;;12.38;4.40;;;23.40;32.60;;;;;;6160894;28;86509;-70
2021/03/29 10:11:22;;;;;;;8.05;3.88;;;23.40;32.40;;;;;;6155542;27;80751;-66
2021/03/29 10:14:23;;;;;;;11.05;4.03;;;23.40;32.50;;;;;;6148957;27;80546;-67
2021/03/29 10:17:26;;;;;;;9.95;3.95;;;23.40;32.80;;;;;;6157550;28;81534;-67
2021/03/29 10:20:26;;;;;;;6.63;3.40;;;23.40;32.20;;;;;;6140175;28;81861;-66
2021/03/29 10:23:27;;;;;;;11.13;4.30;;;23.40;32.40;;;;;;6152047;28;80478;-67
2021/03/29 10:26:29;;;;;;;15.43;4.13;;;23.40;32.20;;;;;;6154366;27;82489;-67
2021/03/29 10:29:30;;;;;;;9.05;3.65;;;23.40;32.40;;;;;;6153421;27;81482;-67
2021/03/29 10:32:30;;;;;;;9.23;4.43;;;23.40;31.90;;;;;;6155247;27;81774;-67
2021/03/29 10:35:31;;;;;;;8.65;4.13;;;23.40;31.90;;;;;;6154978;28;81190;-67
2021/03/29 10:38:32;;;;;;;7.75;3.92;;;23.40;31.90;;;;;;6164096;27;81607;-67
2021/03/29 10:41:32;;;;;;;8.18;3.70;;;23.40;32.40;;;;;;6153997;28;80427;-67
2021/03/29 10:44:33;;;;;;;9.77;4.30;;;23.40;32.30;;;;;;6151909;28;82152;-67
2021/03/29 10:47:33;;;;;;;14.95;3.50;;;23.50;32.00;;;;;;6162782;28;80545;-67
2021/03/29 10:50:34;;;;;;;7.68;4.07;;;23.50;32.10;;;;;;6151624;27;81249;-66
2021/03/29 10:53:35;;;;;;;7.72;3.75;;;23.50;32.50;;;;;;6156014;28;80488;-67
2021/03/29 10:56:35;;;;;;;7.53;3.97;;;23.50;32.10;;;;;;6155451;27;80786;-68
2021/03/29 10:59:36;;;;;;;5.63;3.47;;;23.50;32.20;;;;;;6143768;28;82125;-68
2021/03/29 11:02:37;;;;;;;8.27;4.28;;;23.50;31.90;;;;;;6144902;28;81136;-68
2021/03/29 11:05:38;;;;;;;7.10;3.92;;;23.50;32.20;;;;;;6149022;27;81630;-70
2021/03/29 11:08:38;;;;;;;6.07;3.75;;;23.50;31.90;;;;;;6159112;27;80923;-69
2021/03/29 11:11:39;;;;;;;8.32;3.75;;;23.50;31.90;;;;;;6148435;28;81554;-71
2021/03/29 11:14:39;;;;;;;7.82;3.42;;;23.50;31.20;;;;;;6157376;27;80814;-71
2021/03/29 11:17:40;;;;;;;8.57;4.18;;;23.50;31.90;;;;;;6155977;27;80958;-68
2021/03/29 11:20:41;;;;;;;5.80;3.35;;;23.50;31.50;;;;;;6155581;27;81078;-70
2021/03/29 11:23:41;;;;;;;7.40;3.78;;;23.50;31.60;;;;;;6131078;28;81291;-69
2021/03/29 11:26:42;;;;;;;10.38;4.57;;;23.50;31.30;;;;;;6150506;28;82563;-68
2021/03/29 11:29:42;;;;;;;7.50;4.30;;;23.50;31.10;;;;;;6145406;28;81214;-68
2021/03/29 11:32:43;;;;;;;7.05;3.70;;;23.50;31.70;;;;;;6157498;27;81656;-67
2021/03/29 11:35:44;;;;;;;9.68;4.28;;;23.50;31.80;;;;;;6154043;28;81476;-67
2021/03/29 11:38:44;;;;;;;11.50;3.97;;;23.50;31.10;;;;;;6149278;27;81257;-68
2021/03/29 11:41:45;;;;;;;8.10;3.83;;;23.50;30.50;;;;;;6157745;27;81308;-68
2021/03/29 11:44:46;;;;;;;11.05;4.70;;;23.50;31.30;;;;;;6156259;27;80824;-67
2021/03/29 11:47:46;;;;;;;10.10;3.97;;;23.50;31.40;;;;;;6157863;28;81585;-69
2021/03/29 11:50:47;;;;;;;7.43;3.72;;;23.50;30.50;;;;;;6152311;27;81304;-68
2021/03/29 11:53:47;;;;;;;11.27;4.55;;;23.50;30.40;;;;;;6163560;27;80901;-68
2021/03/29 11:56:48;;;;;;;8.77;4.65;;;23.50;31.00;;;;;;6155771;27;81355;-69
2021/03/29 11:59:52;;;;;;;9.27;4.35;;;23.50;31.50;;;;;;6159172;27;80484;-68
2021/03/29 12:03:16;;;;;;;6.43;3.70;;;23.50;31.50;;;;;;6152044;28;80547;-67
2021/03/29 12:06:21;;;;;;;7.25;3.92;;;23.60;31.00;;;;;;6153447;28;85002;-69
2021/03/29 12:12:30;;;;;;;13.10;3.67;;;23.50;30.90;;;;;;6159067;27;82188;-69
2021/03/29 12:15:31;;;;;;;10.05;3.90;;;23.50;30.40;;;;;;6162510;27;80688;-69
2021/03/29 12:18:46;;;;;;;9.05;4.18;;;23.50;31.50;;;;;;6155700;28;81999;-69
2021/03/29 12:21:46;;;;;;;10.18;4.60;;;23.60;31.50;;;;;;6150704;27;80672;-69
2021/03/29 12:24:47;;;;;;;11.15;4.15;;;23.60;31.70;;;;;;6153811;27;81587;-69
2021/03/29 12:27:47;;;;;;;10.68;5.22;;;23.60;31.60;;;;;;6155036;27;80507;-68
2021/03/29 12:30:48;;;;;;;6.28;3.75;;;23.60;31.00;;;;;;6156205;28;81910;-69
2021/03/29 12:33:49;;;;;;;6.43;3.58;;;23.60;31.80;;;;;;6159422;28;80839;-67
2021/03/29 12:36:53;;;;;;;9.30;3.75;;;23.60;31.00;;;;;;6154811;27;81543;-66
2021/03/29 12:40:09;;;;;;;9.75;3.17;;;23.60;30.90;;;;;;6130447;27;81810;-69
2021/03/29 12:43:13;;;;;;;8.05;3.17;;;23.60;30.90;;;;;;6157029;27;81512;-68
2021/03/29 12:46:18;;;;;;;7.57;3.70;;;23.60;31.50;;;;;;6155449;28;81816;-69
2021/03/29 12:49:19;;;;;;;11.85;3.45;;;23.60;31.20;;;;;;6155303;27;80390;-70
2021/03/29 12:52:19;;;;;;;6.97;3.65;;;23.60;31.30;;;;;;6161151;27;80228;-70
2021/03/29 12:55:21;;;;;;;10.25;3.80;;;23.60;31.40;;;;;;6118593;28;83632;-70
2021/03/29 12:58:22;;;;;;;8.27;3.58;;;23.60;31.70;;;;;;6155038;27;80751;-73
2021/03/29 13:01:24;;;;;;;9.13;3.97;;;23.60;32.40;;;;;;6155563;27;80595;-69
2021/03/29 13:04:29;;;;;;;10.93;3.80;;;23.60;31.30;;;;;;6156850;28;80784;-71
2021/03/29 13:07:35;;;;;;;9.65;3.80;;;23.70;31.20;;;;;;6153955;28;84393;-69
2021/03/29 13:13:36;;;;;;;8.40;4.22;;;23.70;32.50;;;;;;6154364;27;81404;-68
2021/03/29 13:16:37;;;;;;;13.43;4.80;;;23.60;31.60;;;;;;6155271;27;80549;-69
2021/03/29 13:19:37;;;;;;;7.88;3.97;;;23.60;31.20;;;;;;6159055;27;80210;-68
2021/03/29 13:22:38;;;;;;;11.43;4.32;;;23.50;30.70;;;;;;6153318;28;83082;-69
2021/03/29 13:25:39;;;;;;;9.32;3.65;;;23.50;31.20;;;;;;6151556;28;80619;-69
2021/03/29 13:28:39;;;;;;;9.75;4.47;;;23.50;30.70;;;;;;6150147;27;81401;-67
2021/03/29 13:31:40;;;;;;;7.68;3.33;;;23.40;31.30;;;;;;6160940;27;81305;-68
2021/03/29 13:34:40;;;;;;;9.32;4.10;;;23.40;30.60;;;;;;6144419;28;81220;-67
2021/03/29 13:37:41;;;;;;;11.60;4.38;;;23.30;30.40;;;;;;6148102;27;80760;-68
2021/03/29 13:40:41;;;;;;;7.35;4.05;;;23.30;30.40;;;;;;6155107;27;81728;-67
2021/03/29 13:43:42;;;;;;;8.32;3.80;;;23.30;30.50;;;;;;6156063;28;84170;-68
2021/03/29 13:46:43;;;;;;;11.45;5.40;;;23.30;30.50;;;;;;6154724;27;80327;-68
2021/03/29 13:49:43;;;;;;;9.70;4.75;;;23.30;30.40;;;;;;6162804;28;82076;-69
2021/03/29 13:52:44;;;;;;;9.45;4.28;;;23.30;30.30;;;;;;6163009;27;81496;-67
2021/03/29 13:55:44;;;;;;;10.23;4.18;;;23.30;30.40;;;;;;6145581;27;80842;-68
2021/03/29 13:58:45;;;;;;;10.00;4.55;;;23.30;30.40;;;;;;6151783;27;80578;-68
2021/03/29 14:01:46;;;;;;;16.02;4.75;;;23.30;30.60;;;;;;6155048;28;81260;-69
2021/03/29 14:04:48;;;;;;;13.98;5.60;;;23.30;30.50;;;;;;6131944;27;81181;-68
2021/03/29 14:07:49;;;;;;;17.38;5.47;;;23.30;30.40;;;;;;6162068;27;80505;-70
2021/03/29 14:10:50;;;;;;;12.38;5.63;;;23.20;30.30;;;;;;6155071;27;81233;-68
2021/03/29 14:13:50;;;;;;;12.30;5.60;;;23.20;30.50;;;;;;6157032;28;81145;-67
2021/03/29 14:16:51;;;;;;;12.15;5.45;;;23.20;31.00;;;;;;6150509;27;80778;-67
2021/03/29 14:19:52;;;;;;;15.27;5.35;;;23.30;30.40;;;;;;6156294;27;81245;-66
2021/03/29 14:22:52;;;;;;;13.73;6.15;;;23.20;30.20;;;;;;6146149;28;81894;-67
2021/03/29 14:25:53;;;;;;;11.60;4.97;;;23.20;30.50;;;;;;6138033;27;80732;-67
2021/03/29 14:28:54;;;;;;;9.75;4.20;;;23.20;30.40;;;;;;6153257;28;80955;-68
2021/03/29 14:31:55;;;;;;;10.38;5.03;;;23.10;30.50;;;;;;6157917;28;81639;-68
2021/03/29 14:44:35;;;;;;;14.05;4.50;;;23.20;31.00;;;;;;6147549;28;81016;-70
2021/03/29 14:47:35;;;;;;;11.85;4.07;;;23.10;30.90;;;;;;6149711;27;82788;-70
2021/03/29 14:50:36;;;;;;;14.38;5.78;;;23.10;31.10;;;;;;6144809;27;80645;-68
2021/03/29 14:53:37;;;;;;;13.05;5.88;;;23.10;31.10;;;;;;6154385;27;80608;-67
2021/03/29 14:56:37;;;;;;;10.98;5.07;;;23.00;32.20;;;;;;6151095;28;80614;-67
2021/03/29 14:59:38;;;;;;;7.00;4.35;;;23.00;32.40;;;;;;6156555;28;80761;-68
2021/03/29 15:02:40;;;;;;;9.55;4.20;;;23.10;31.70;;;;;;6149227;28;81395;-68
2021/03/29 15:08:44;;;;;;;11.10;4.47;;;23.20;31.90;;;;;;6153330;28;80578;-68
2021/03/29 15:11:44;;;;;;;10.05;4.47;;;23.30;32.20;;;;;;6157170;27;85105;-68
2021/03/29 15:14:45;;;;;;;10.63;4.40;;;23.40;32.20;;;;;;6154654;28;81260;-68
2021/03/29 15:17:46;;;;;;;7.20;3.78;;;23.40;32.50;;;;;;6140890;27;81449;-68
2021/03/29 15:20:46;;;;;;;8.95;3.90;;;23.40;32.40;;;;;;6150581;27;81409;-68
2021/03/29 15:23:47;;;;;;;10.20;4.38;;;23.40;32.70;;;;;;6150499;27;80849;-68
2021/03/29 15:26:47;;;;;;;10.00;3.83;;;23.40;32.70;;;;;;6149389;28;82029;-68
2021/03/29 15:29:48;;;;;;;9.25;4.35;;;23.50;33.00;;;;;;6149106;27;82425;-68
2021/03/29 15:32:48;;;;;;;8.82;4.00;;;23.50;33.00;;;;;;6131698;28;82143;-69
2021/03/29 15:35:49;;;;;;;9.80;4.28;;;23.50;32.60;;;;;;6149016;28;80783;-68
2021/03/29 15:38:50;;;;;;;7.72;4.00;;;23.50;32.80;;;;;;6150862;28;80974;-67
2021/03/29 15:41:50;;;;;;;7.90;3.55;;;23.50;33.60;;;;;;6150768;27;80848;-67
2021/03/29 15:44:51;;;;;;;8.02;3.78;;;23.50;34.20;;;;;;6150267;27;80693;-67
2021/03/29 15:47:51;;;;;;;10.88;3.92;;;23.50;33.10;;;;;;6150677;27;80450;-65
2021/03/29 15:50:52;;;;;;;7.07;4.13;;;23.50;33.40;;;;;;6146720;27;82083;-64